Time;durP1;ratioP1;P1;durP2;ratioP2;P2;SDS_P1;SDS_P2;PMS_P1;PMS_P2;Temp;Humidity;BMP_temperature;BMP_pressure;BME280_temperature;BME280_humidity;BME280_pressure;Samples;Min_cycle;Max_cycle;Signal;HPM_P1;HPM_P2
2022/03/08 00:00:56;;;;;;;9.80;6.60;;;3.80;78.20;;;;;;7338726;19;109511;-91
2022/03/08 00:03:23;;;;;;;10.20;7.23;;;3.80;78.50;;;;;;7338853;19;109161;-92
2022/03/08 00:05:51;;;;;;;12.20;6.90;;;3.70;78.70;;;;;;7337746;19;113217;-91
2022/03/08 00:08:18;;;;;;;8.77;7.43;;;3.70;79.30;;;;;;7340152;19;109209;-90
2022/03/08 00:10:45;;;;;;;9.23;7.57;;;3.70;78.70;;;;;;7339242;19;111623;-90
2022/03/08 00:13:12;;;;;;;8.37;6.87;;;3.70;79.10;;;;;;7338350;19;110306;-91
2022/03/08 00:15:39;;;;;;;7.53;6.47;;;3.70;79.00;;;;;;7341180;19;108693;-91
2022/03/08 00:18:07;;;;;;;8.77;6.63;;;3.60;79.10;;;;;;7344460;19;109478;-91
2022/03/08 00:20:34;;;;;;;9.33;7.00;;;3.60;78.90;;;;;;7341911;19;108415;-91
2022/03/08 00:23:02;;;;;;;10.70;6.90;;;3.60;79.10;;;;;;7337142;19;111449;-90
2022/03/08 00:25:30;;;;;;;10.97;7.27;;;3.70;79.20;;;;;;7338933;19;110285;-91
2022/03/08 00:27:57;;;;;;;14.10;7.70;;;3.60;79.20;;;;;;7339966;19;108434;-91
2022/03/08 00:30:26;;;;;;;8.97;7.40;;;3.60;79.40;;;;;;7337835;19;109458;-92
2022/03/08 00:32:54;;;;;;;10.50;7.83;;;3.60;79.50;;;;;;7338053;19;109174;-90
2022/03/08 00:35:23;;;;;;;11.30;7.80;;;3.50;79.50;;;;;;7335663;19;109489;-91
2022/03/08 00:37:56;;;;;;;11.33;7.23;;;3.50;79.50;;;;;;7338117;19;108495;-91
2022/03/08 00:40:23;;;;;;;11.37;7.17;;;3.40;79.60;;;;;;7345059;19;110986;-91
2022/03/08 00:43:14;;;;;;;10.47;7.80;;;3.40;79.80;;;;;;7335227;19;109784;-91
2022/03/08 00:45:49;;;;;;;13.60;9.03;;;3.40;80.00;;;;;;7337835;19;110671;-90
2022/03/08 00:48:30;;;;;;;10.53;7.37;;;3.30;80.60;;;;;;7337625;19;108697;-91
2022/03/08 00:50:57;;;;;;;10.30;7.40;;;3.30;80.40;;;;;;7336085;19;108310;-90
2022/03/08 00:53:24;;;;;;;10.67;7.67;;;3.30;80.40;;;;;;7338626;19;109404;-90
2022/03/08 00:55:51;;;;;;;10.10;7.73;;;3.30;80.70;;;;;;7341181;19;109365;-91
2022/03/08 00:58:18;;;;;;;13.43;8.23;;;3.30;80.70;;;;;;7345494;19;109889;-91
2022/03/08 01:00:45;;;;;;;10.93;7.93;;;3.20;80.80;;;;;;7347937;19;109723;-91
2022/03/08 01:03:13;;;;;;;14.43;8.13;;;3.20;81.00;;;;;;7350306;19;109372;-91
2022/03/08 01:05:42;;;;;;;13.80;7.70;;;3.20;81.00;;;;;;7345826;19;110329;-91
2022/03/08 01:08:09;;;;;;;13.43;8.20;;;3.10;80.90;;;;;;7346331;19;108562;-91
2022/03/08 01:10:37;;;;;;;10.90;7.90;;;3.20;81.10;;;;;;7344159;19;109721;-92
2022/03/08 01:13:04;;;;;;;11.17;7.47;;;3.10;81.20;;;;;;7343671;19;109124;-92
2022/03/08 01:15:32;;;;;;;10.83;7.77;;;3.10;81.10;;;;;;7347318;19;109151;-90
2022/03/08 01:18:00;;;;;;;11.20;7.93;;;3.10;81.40;;;;;;7345368;19;110564;-91
2022/03/08 01:20:27;;;;;;;15.23;8.53;;;3.00;81.50;;;;;;7344738;19;114609;-91
2022/03/08 01:22:54;;;;;;;10.10;8.00;;;3.00;81.80;;;;;;7344384;19;109781;-91
2022/03/08 01:25:22;;;;;;;14.03;8.77;;;3.00;81.90;;;;;;7349187;19;109813;-91
2022/03/08 01:27:51;;;;;;;11.77;7.83;;;3.00;82.00;;;;;;7345829;19;109374;-91
2022/03/08 01:30:21;;;;;;;12.57;7.87;;;2.90;82.60;;;;;;7341612;19;108676;-91
2022/03/08 01:32:48;;;;;;;9.10;7.90;;;2.90;83.30;;;;;;7344910;19;110003;-90
2022/03/08 01:35:16;;;;;;;13.57;7.90;;;2.90;83.50;;;;;;7342157;19;109323;-90
2022/03/08 01:37:43;;;;;;;12.80;7.80;;;2.90;83.60;;;;;;7344960;19;108721;-91
2022/03/08 01:40:14;;;;;;;12.33;7.97;;;2.90;83.70;;;;;;7345951;19;109925;-90
2022/03/08 01:42:48;;;;;;;12.93;8.43;;;2.90;84.10;;;;;;7344436;19;108286;-90
2022/03/08 01:45:17;;;;;;;9.83;7.50;;;2.90;84.60;;;;;;7345358;19;109268;-91
2022/03/08 01:47:44;;;;;;;11.87;7.77;;;2.90;84.60;;;;;;7348410;19;109465;-91
2022/03/08 01:50:13;;;;;;;11.23;8.10;;;2.90;84.10;;;;;;7345149;19;110142;-90
2022/03/08 01:52:41;;;;;;;15.70;7.53;;;2.90;84.80;;;;;;7342472;19;110076;-91
2022/03/08 01:55:10;;;;;;;9.40;7.63;;;2.90;85.00;;;;;;7342195;19;108303;-90
2022/03/08 01:57:37;;;;;;;9.40;7.23;;;2.80;85.00;;;;;;7345686;19;109506;-91
2022/03/08 02:00:10;;;;;;;12.80;7.70;;;2.80;85.30;;;;;;7345367;19;110181;-91
2022/03/08 02:02:37;;;;;;;12.60;7.83;;;2.80;85.50;;;;;;7344047;19;109244;-92
2022/03/08 02:05:05;;;;;;;10.47;7.90;;;2.70;85.00;;;;;;7345843;19;109028;-91
2022/03/08 02:07:32;;;;;;;11.70;7.53;;;2.70;85.00;;;;;;7341561;19;110737;-91
2022/03/08 02:10:00;;;;;;;12.80;7.50;;;2.70;85.20;;;;;;7346887;19;108743;-91
2022/03/08 02:12:27;;;;;;;11.87;7.90;;;2.70;85.10;;;;;;7345135;19;110598;-91
2022/03/08 02:14:54;;;;;;;11.20;7.83;;;2.70;85.00;;;;;;7341478;19;108352;-91
2022/03/08 02:17:21;;;;;;;11.07;7.70;;;2.70;84.80;;;;;;7343665;19;108510;-91
2022/03/08 02:19:48;;;;;;;16.07;7.73;;;2.60;85.30;;;;;;7341426;19;112608;-91
2022/03/08 02:22:15;;;;;;;15.77;7.47;;;2.60;85.00;;;;;;7345404;19;109791;-91
2022/03/08 02:24:42;;;;;;;15.00;8.13;;;2.60;85.00;;;;;;7344441;19;110633;-91
2022/03/08 02:27:10;;;;;;;13.83;8.43;;;2.60;84.90;;;;;;7342523;19;111566;-91
2022/03/08 02:29:37;;;;;;;14.63;7.83;;;2.60;84.90;;;;;;7349918;19;108450;-91
2022/03/08 02:32:04;;;;;;;15.80;8.30;;;2.50;85.30;;;;;;7339764;19;110422;-91
2022/03/08 02:34:32;;;;;;;16.77;8.27;;;2.40;86.50;;;;;;7342924;19;108547;-91
2022/03/08 02:37:04;;;;;;;12.60;8.53;;;2.30;86.60;;;;;;7344356;19;109827;-90
2022/03/08 02:39:32;;;;;;;10.27;6.97;;;2.20;87.20;;;;;;7342485;19;110091;-90
2022/03/08 02:42:00;;;;;;;10.20;7.43;;;2.20;87.50;;;;;;7343829;19;108730;-90
2022/03/08 02:44:27;;;;;;;9.13;7.20;;;2.20;87.70;;;;;;7343788;19;109533;-91
2022/03/08 02:46:55;;;;;;;9.20;7.10;;;2.20;87.50;;;;;;7341787;19;109370;-90
2022/03/08 02:49:22;;;;;;;10.83;7.57;;;2.20;87.40;;;;;;7343103;19;110124;-91
2022/03/08 02:51:49;;;;;;;10.67;7.40;;;2.30;87.50;;;;;;7344876;19;110134;-90
2022/03/08 02:54:16;;;;;;;12.83;7.33;;;2.30;87.30;;;;;;7343062;19;108386;-91
2022/03/08 02:56:43;;;;;;;11.17;7.50;;;2.30;87.00;;;;;;7342713;19;109706;-91
2022/03/08 02:59:10;;;;;;;9.27;7.30;;;2.30;87.00;;;;;;7342004;19;109680;-91
2022/03/08 03:01:37;;;;;;;14.13;8.03;;;2.10;87.80;;;;;;7342886;19;108800;-91
2022/03/08 03:04:05;;;;;;;18.23;8.77;;;2.10;87.50;;;;;;7340302;19;109821;-91
2022/03/08 03:06:35;;;;;;;15.07;8.33;;;2.10;87.60;;;;;;7341971;19;109414;-92
2022/03/08 03:09:03;;;;;;;9.90;7.70;;;2.10;87.30;;;;;;7343343;19;108548;-91
2022/03/08 03:11:30;;;;;;;14.17;8.43;;;2.10;87.40;;;;;;7341711;19;109421;-92
2022/03/08 03:13:57;;;;;;;11.00;7.60;;;2.00;87.90;;;;;;7344244;19;111473;-91
2022/03/08 03:16:24;;;;;;;10.20;7.63;;;1.90;88.20;;;;;;7338632;19;111315;-91
2022/03/08 03:18:51;;;;;;;13.47;8.53;;;1.80;88.50;;;;;;7340883;19;109155;-91
2022/03/08 03:21:18;;;;;;;15.47;8.80;;;1.80;88.60;;;;;;7343636;19;109444;-91
2022/03/08 03:23:45;;;;;;;17.80;9.50;;;1.70;89.60;;;;;;7340871;19;108635;-90
2022/03/08 03:26:12;;;;;;;27.03;11.07;;;1.60;90.10;;;;;;7344233;19;110783;-91
2022/03/08 03:28:39;;;;;;;19.13;9.83;;;1.50;90.50;;;;;;7337259;19;110461;-91
2022/03/08 03:31:07;;;;;;;23.43;10.33;;;1.40;90.90;;;;;;7342220;19;112933;-91
2022/03/08 03:33:34;;;;;;;14.10;9.97;;;1.30;91.20;;;;;;7336184;19;110312;-91
2022/03/08 03:36:01;;;;;;;16.13;9.37;;;1.20;91.40;;;;;;7340589;19;114665;-90
2022/03/08 03:38:29;;;;;;;14.27;8.23;;;1.20;91.80;;;;;;7341902;19;109379;-90
2022/03/08 03:40:57;;;;;;;12.60;8.03;;;1.20;91.60;;;;;;7350360;19;108753;-90
2022/03/08 03:43:24;;;;;;;11.10;7.80;;;1.30;91.40;;;;;;7348277;19;108808;-91
2022/03/08 03:45:51;;;;;;;13.70;8.47;;;1.40;91.60;;;;;;7348617;19;110776;-92
2022/03/08 03:48:18;;;;;;;10.90;8.00;;;1.30;91.70;;;;;;7345374;19;108280;-91
2022/03/08 03:50:45;;;;;;;10.03;7.60;;;1.30;91.60;;;;;;7347403;19;108475;-91
2022/03/08 03:53:12;;;;;;;11.67;8.03;;;1.30;91.70;;;;;;7345118;19;109459;-92
2022/03/08 03:55:39;;;;;;;9.53;6.83;;;1.40;91.60;;;;;;7343365;19;108556;-91
2022/03/08 03:58:06;;;;;;;9.80;7.77;;;1.50;91.60;;;;;;7350903;19;109012;-91
2022/03/08 04:00:34;;;;;;;11.93;7.77;;;1.50;91.40;;;;;;7347289;19;109010;-89
2022/03/08 04:03:01;;;;;;;13.30;7.60;;;1.50;91.40;;;;;;7343231;19;109848;-83
2022/03/08 04:05:29;;;;;;;9.60;7.43;;;1.50;91.80;;;;;;7330024;19;111660;-83
2022/03/08 04:07:56;;;;;;;13.77;7.60;;;1.40;91.90;;;;;;7332953;19;108611;-83
2022/03/08 04:10:23;;;;;;;13.00;7.40;;;1.50;91.90;;;;;;7332678;19;110249;-83
2022/03/08 04:12:50;;;;;;;8.97;6.90;;;1.40;91.90;;;;;;7332226;19;110813;-83
2022/03/08 04:15:17;;;;;;;13.23;7.93;;;1.50;92.30;;;;;;7336570;19;110264;-83
2022/03/08 04:17:45;;;;;;;9.13;7.37;;;1.50;91.90;;;;;;7338899;19;109471;-84
2022/03/08 04:20:12;;;;;;;10.53;7.70;;;1.50;91.90;;;;;;7342069;19;110213;-83
2022/03/08 04:22:40;;;;;;;11.83;7.83;;;1.60;91.80;;;;;;7338904;19;109757;-83
2022/03/08 04:25:07;;;;;;;9.33;7.10;;;1.70;91.60;;;;;;7335683;19;110247;-83
2022/03/08 04:27:34;;;;;;;12.30;7.60;;;1.70;91.60;;;;;;7338523;19;109148;-84
2022/03/08 04:30:03;;;;;;;10.97;7.73;;;1.80;91.60;;;;;;7338011;19;113373;-84
2022/03/08 04:32:30;;;;;;;15.70;8.00;;;1.80;91.40;;;;;;7347654;19;110148;-84
2022/03/08 04:34:57;;;;;;;12.93;7.87;;;1.80;91.50;;;;;;7353531;19;109663;-84
2022/03/08 04:37:24;;;;;;;15.17;7.83;;;1.70;91.60;;;;;;7350125;19;109854;-84
2022/03/08 04:39:51;;;;;;;12.37;8.07;;;1.70;91.60;;;;;;7355262;19;109106;-84
2022/03/08 04:42:18;;;;;;;10.47;7.27;;;1.70;91.50;;;;;;7352435;19;109547;-85
2022/03/08 04:44:45;;;;;;;14.27;7.83;;;1.70;91.60;;;;;;7349998;19;109165;-84
2022/03/08 04:47:12;;;;;;;13.27;8.00;;;1.70;91.40;;;;;;7354443;19;108107;-84
2022/03/08 04:49:40;;;;;;;13.23;7.83;;;1.70;91.50;;;;;;7348423;19;109157;-84
2022/03/08 04:52:08;;;;;;;13.70;8.23;;;1.70;91.60;;;;;;7350216;19;110273;-84
2022/03/08 04:54:35;;;;;;;12.77;7.50;;;1.70;91.70;;;;;;7349175;19;109087;-84
2022/03/08 04:57:03;;;;;;;14.27;8.00;;;1.60;91.80;;;;;;7350479;19;108779;-84
2022/03/08 04:59:30;;;;;;;12.83;7.60;;;1.70;91.80;;;;;;7351741;19;110780;-84
2022/03/08 05:01:57;;;;;;;11.67;7.80;;;1.70;91.70;;;;;;7354349;19;108982;-85
2022/03/08 05:04:24;;;;;;;9.23;7.33;;;1.70;91.80;;;;;;7350523;19;110508;-84
2022/03/08 05:06:51;;;;;;;15.00;7.43;;;1.70;91.80;;;;;;7350266;19;109984;-84
2022/03/08 05:09:19;;;;;;;11.53;7.37;;;1.70;91.70;;;;;;7347786;19;109200;-84
2022/03/08 05:11:46;;;;;;;13.87;7.43;;;1.70;91.70;;;;;;7350958;19;110470;-84
2022/03/08 05:14:13;;;;;;;13.87;7.33;;;1.80;92.10;;;;;;7348178;19;109381;-84
2022/03/08 05:16:40;;;;;;;11.67;7.83;;;1.70;91.80;;;;;;7351087;19;109525;-84
2022/03/08 05:19:08;;;;;;;10.07;7.57;;;1.70;91.70;;;;;;7350723;19;111464;-84
2022/03/08 05:21:35;;;;;;;11.30;7.10;;;1.70;91.90;;;;;;7348404;19;108459;-84
2022/03/08 05:24:02;;;;;;;14.10;8.10;;;1.60;92.00;;;;;;7357322;19;109534;-84
2022/03/08 05:26:29;;;;;;;11.70;7.70;;;1.50;92.20;;;;;;7346373;19;108410;-83
2022/03/08 05:28:56;;;;;;;11.47;7.20;;;1.50;92.30;;;;;;7347826;19;109340;-83
2022/03/08 05:31:23;;;;;;;12.77;7.40;;;1.60;92.20;;;;;;7350925;19;110288;-83
2022/03/08 05:33:50;;;;;;;12.63;7.50;;;1.60;92.10;;;;;;7347248;19;108378;-83
2022/03/08 05:36:17;;;;;;;10.83;7.50;;;1.60;92.00;;;;;;7348062;19;111119;-83
2022/03/08 05:38:44;;;;;;;11.17;7.00;;;1.60;92.10;;;;;;7344374;19;110149;-83
2022/03/08 05:41:11;;;;;;;11.70;7.60;;;1.60;92.70;;;;;;7347468;19;109080;-82
2022/03/08 05:43:38;;;;;;;12.57;7.40;;;1.60;92.20;;;;;;7342503;19;109570;-83
2022/03/08 05:46:05;;;;;;;12.80;7.40;;;1.60;92.20;;;;;;7343808;19;110298;-83
2022/03/08 05:48:33;;;;;;;13.50;7.67;;;1.60;92.30;;;;;;7343536;19;109503;-83
2022/03/08 05:51:00;;;;;;;17.07;7.90;;;1.60;92.20;;;;;;7339793;19;110425;-84
2022/03/08 05:53:27;;;;;;;10.67;7.50;;;1.70;92.30;;;;;;7340301;19;109980;-83
2022/03/08 05:55:54;;;;;;;9.27;7.40;;;1.60;92.20;;;;;;7343764;19;109268;-84
2022/03/08 05:58:21;;;;;;;11.57;7.60;;;1.60;92.40;;;;;;7338293;19;110240;-83
2022/03/08 06:00:48;;;;;;;11.67;7.47;;;1.60;92.30;;;;;;7340782;19;108940;-88
2022/03/08 06:03:16;;;;;;;16.87;8.03;;;1.60;92.40;;;;;;7343765;19;109651;-84
2022/03/08 06:05:43;;;;;;;10.53;7.00;;;1.60;92.50;;;;;;7338990;19;112204;-85
2022/03/08 06:08:10;;;;;;;13.53;7.70;;;1.50;92.50;;;;;;7348262;19;108910;-84
2022/03/08 06:10:38;;;;;;;11.80;7.30;;;1.50;92.50;;;;;;7340883;19;110402;-86
2022/03/08 06:13:05;;;;;;;14.87;7.57;;;1.60;92.50;;;;;;7338263;19;108734;-85
2022/03/08 06:15:32;;;;;;;17.67;7.97;;;1.60;92.40;;;;;;7340580;19;108970;-85
2022/03/08 06:17:59;;;;;;;16.03;7.87;;;1.70;92.30;;;;;;7336342;19;110371;-84
2022/03/08 06:20:26;;;;;;;12.77;7.53;;;1.60;92.40;;;;;;7341384;19;108797;-83
2022/03/08 06:22:54;;;;;;;14.40;7.77;;;1.70;92.30;;;;;;7341251;19;109582;-85
2022/03/08 06:25:21;;;;;;;16.03;7.27;;;1.70;92.30;;;;;;7338601;19;110103;-84
2022/03/08 06:27:48;;;;;;;10.50;7.53;;;1.70;92.30;;;;;;7342736;19;108609;-84
2022/03/08 06:30:15;;;;;;;13.03;7.73;;;1.70;92.40;;;;;;7343787;19;110071;-84
2022/03/08 06:32:42;;;;;;;12.33;7.67;;;1.60;92.50;;;;;;7340865;19;108488;-84
2022/03/08 06:35:10;;;;;;;19.80;7.47;;;1.70;92.40;;;;;;7337535;19;109659;-84
2022/03/08 06:37:38;;;;;;;12.70;7.57;;;1.80;92.30;;;;;;7339035;19;110578;-85
2022/03/08 06:40:07;;;;;;;19.37;8.27;;;1.80;92.30;;;;;;7338460;19;108280;-85
2022/03/08 06:42:36;;;;;;;14.90;7.67;;;1.80;92.30;;;;;;7337010;19;109149;-84
2022/03/08 06:45:05;;;;;;;19.17;7.60;;;1.90;92.30;;;;;;7342443;19;110971;-94
2022/03/08 06:47:33;;;;;;;14.27;7.67;;;1.90;92.30;;;;;;7342948;19;110224;-96
2022/03/08 06:50:01;;;;;;;13.90;6.83;;;2.00;92.40;;;;;;7349077;19;112276;-94
2022/03/08 06:52:28;;;;;;;10.60;7.40;;;2.10;92.20;;;;;;7347302;19;108916;-95
2022/03/08 06:54:55;;;;;;;11.10;6.43;;;2.10;92.60;;;;;;7344570;19;110630;-94
2022/03/08 06:57:24;;;;;;;12.07;6.93;;;2.20;92.20;;;;;;7351937;19;111203;-94
2022/03/08 06:59:51;;;;;;;11.87;6.97;;;2.20;92.30;;;;;;7351300;19;110431;-94
2022/03/08 07:02:18;;;;;;;16.80;6.67;;;2.30;92.30;;;;;;7353069;19;111370;-94
2022/03/08 07:04:46;;;;;;;22.27;7.10;;;2.30;92.10;;;;;;7351544;19;112799;-95
2022/03/08 07:07:14;;;;;;;17.00;6.90;;;2.30;92.40;;;;;;7352136;19;109320;-96
2022/03/08 07:09:42;;;;;;;15.83;7.77;;;2.30;92.70;;;;;;7352553;19;112737;-92
2022/03/08 07:12:09;;;;;;;18.30;7.47;;;2.30;92.80;;;;;;7357497;19;113433;-96
2022/03/08 07:14:37;;;;;;;12.77;7.37;;;2.30;92.70;;;;;;7350874;19;111068;-95
2022/03/08 07:17:05;;;;;;;14.17;7.60;;;2.40;92.70;;;;;;7351862;19;112008;-96
2022/03/08 07:19:32;;;;;;;21.97;7.97;;;2.40;92.80;;;;;;7351568;19;110027;-96
2022/03/08 07:22:00;;;;;;;26.13;7.63;;;2.50;92.70;;;;;;7351675;19;111355;-96
2022/03/08 07:24:27;;;;;;;14.17;7.10;;;2.50;92.80;;;;;;7351564;19;111203;-95
2022/03/08 07:27:00;;;;;;;10.97;7.03;;;2.70;92.60;;;;;;7351311;19;111504;-96
2022/03/08 07:29:36;;;;;;;21.10;7.70;;;2.70;92.50;;;;;;7351749;19;112887;-95
2022/03/08 07:32:07;;;;;;;20.20;7.57;;;2.80;92.60;;;;;;7352429;19;111857;-96
2022/03/08 07:34:39;;;;;;;24.47;6.27;;;2.90;92.70;;;;;;7357668;19;108621;-96
2022/03/08 07:37:08;;;;;;;9.20;6.70;;;3.00;92.50;;;;;;7352780;19;111478;-96
2022/03/08 07:39:37;;;;;;;9.97;6.70;;;3.00;92.50;;;;;;7349442;19;108409;-95
2022/03/08 07:42:12;;;;;;;14.40;7.00;;;3.10;92.40;;;;;;7350684;19;112163;-96
2022/03/08 07:44:43;;;;;;;18.50;7.40;;;3.20;92.30;;;;;;7351619;19;110577;-96
2022/03/08 07:47:16;;;;;;;12.30;6.63;;;3.20;92.00;;;;;;7353247;19;109895;-96
2022/03/08 07:49:53;;;;;;;14.63;6.03;;;3.30;92.00;;;;;;7352365;19;111879;-96
2022/03/08 07:52:30;;;;;;;10.37;5.67;;;3.40;91.80;;;;;;7339270;19;108881;-84
2022/03/08 07:54:57;;;;;;;11.10;6.40;;;3.50;91.90;;;;;;7340243;19;110683;-84
2022/03/08 07:57:24;;;;;;;11.70;6.80;;;3.60;91.80;;;;;;7347768;19;109079;-85
2022/03/08 08:00:12;;;;;;;10.50;6.53;;;3.60;91.50;;;;;;7339810;19;109661;-85
2022/03/08 08:02:39;;;;;;;14.90;6.43;;;3.70;91.40;;;;;;7339830;19;109485;-85
2022/03/08 08:05:06;;;;;;;12.23;6.13;;;3.80;91.70;;;;;;7342882;19;110299;-85
2022/03/08 08:07:33;;;;;;;10.17;6.13;;;3.90;91.30;;;;;;7338004;19;108909;-85
2022/03/08 08:10:01;;;;;;;11.97;6.23;;;4.00;91.10;;;;;;7340278;19;108832;-88
2022/03/08 08:12:28;;;;;;;10.60;6.00;;;4.10;90.90;;;;;;7341476;19;109339;-86
2022/03/08 08:14:55;;;;;;;8.93;6.00;;;4.30;90.90;;;;;;7339975;19;108660;-84
2022/03/08 08:17:22;;;;;;;9.90;6.30;;;4.40;90.70;;;;;;7342681;19;109488;-85
2022/03/08 08:19:49;;;;;;;11.00;6.00;;;4.50;90.60;;;;;;7346639;19;111272;-85
2022/03/08 08:22:16;;;;;;;8.57;5.93;;;4.60;90.40;;;;;;7341246;19;109292;-84
2022/03/08 08:24:43;;;;;;;10.43;5.60;;;4.60;90.10;;;;;;7342113;19;109109;-85
2022/03/08 08:27:10;;;;;;;10.77;5.30;;;4.70;90.00;;;;;;7339798;19;108281;-85
2022/03/08 08:29:37;;;;;;;7.13;5.60;;;4.80;89.40;;;;;;7340336;19;108724;-85
2022/03/08 08:32:05;;;;;;;11.90;5.40;;;4.80;88.60;;;;;;7339305;19;110184;-85
2022/03/08 08:34:32;;;;;;;6.50;5.13;;;5.00;88.70;;;;;;7341081;19;108300;-84
2022/03/08 08:37:00;;;;;;;10.10;5.97;;;5.00;88.20;;;;;;7337723;19;109463;-85
2022/03/08 08:39:26;;;;;;;13.93;5.70;;;5.10;88.20;;;;;;7340453;19;110683;-85
2022/03/08 08:41:53;;;;;;;;;;;5.20;87.90;;;;;;7347601;19;108860;-85
2022/03/08 08:44:20;;;;;;;7.60;5.73;;;5.20;86.80;;;;;;7341987;19;110208;-85
2022/03/08 08:46:47;;;;;;;10.87;5.30;;;5.30;88.40;;;;;;7340776;19;109550;-84
2022/03/08 08:49:15;;;;;;;12.67;5.77;;;5.40;88.60;;;;;;7340828;19;110682;-85
2022/03/08 08:51:42;;;;;;;10.10;5.80;;;5.50;87.60;;;;;;7338112;19;109889;-86
2022/03/08 08:54:09;;;;;;;14.30;5.87;;;5.60;86.90;;;;;;7339630;19;110845;-85
2022/03/08 08:56:37;;;;;;;10.10;5.57;;;5.60;86.60;;;;;;7339103;19;108300;-85
2022/03/08 08:59:05;;;;;;;12.93;6.37;;;5.70;86.10;;;;;;7336485;19;110531;-85
2022/03/08 09:01:32;;;;;;;14.20;5.70;;;5.80;86.30;;;;;;7345098;19;108439;-85
2022/03/08 09:04:00;;;;;;;7.70;5.57;;;5.90;86.20;;;;;;7338221;19;109301;-85
2022/03/08 09:06:27;;;;;;;9.90;5.80;;;6.10;86.50;;;;;;7340374;19;111330;-85
2022/03/08 09:08:56;;;;;;;11.67;5.87;;;6.20;85.80;;;;;;7340464;19;113475;-85
2022/03/08 09:11:24;;;;;;;10.73;5.03;;;6.20;84.60;;;;;;7339342;19;110012;-85
2022/03/08 09:13:51;;;;;;;10.50;4.80;;;6.30;84.20;;;;;;7340711;19;109161;-84
2022/03/08 09:16:18;;;;;;;6.83;4.93;;;6.40;83.00;;;;;;7337714;19;109497;-85
2022/03/08 09:18:46;;;;;;;8.50;5.23;;;6.40;82.70;;;;;;7344613;19;110130;-85
2022/03/08 09:21:13;;;;;;;7.73;5.13;;;6.50;83.00;;;;;;7346622;19;108467;-85
2022/03/08 09:23:41;;;;;;;6.03;4.93;;;6.60;83.70;;;;;;7350501;19;109477;-85
2022/03/08 09:26:09;;;;;;;6.60;5.30;;;6.70;81.50;;;;;;7345954;19;108286;-84
2022/03/08 09:28:36;;;;;;;11.37;6.00;;;6.80;81.00;;;;;;7346816;19;109310;-85
2022/03/08 09:31:03;;;;;;;8.97;5.23;;;6.80;80.70;;;;;;7345538;19;110060;-85
2022/03/08 09:33:31;;;;;;;5.50;4.87;;;6.90;82.10;;;;;;7347432;19;108332;-85
2022/03/08 09:35:58;;;;;;;11.13;4.73;;;7.10;81.90;;;;;;7343771;19;109952;-85
2022/03/08 09:38:25;;;;;;;8.00;4.63;;;7.20;80.40;;;;;;7345587;19;109085;-85
2022/03/08 09:40:53;;;;;;;7.13;4.50;;;7.30;80.20;;;;;;7345010;19;111277;-85
2022/03/08 09:43:20;;;;;;;8.00;4.77;;;7.30;79.00;;;;;;7344605;19;109354;-85
2022/03/08 09:45:47;;;;;;;5.53;4.60;;;7.40;79.10;;;;;;7352806;19;110066;-85
2022/03/08 09:48:16;;;;;;;6.20;5.07;;;7.50;78.90;;;;;;7343453;19;109497;-85
2022/03/08 09:50:43;;;;;;;5.67;4.80;;;7.50;79.00;;;;;;7344928;19;110415;-85
2022/03/08 09:53:11;;;;;;;5.37;4.43;;;7.70;79.20;;;;;;7346899;19;108517;-85
2022/03/08 09:55:39;;;;;;;9.27;4.97;;;7.70;77.90;;;;;;7342316;19;109763;-85
2022/03/08 09:58:06;;;;;;;8.55;4.65;;;7.80;77.80;;;;;;7345769;19;109128;-86
2022/03/08 10:00:33;;;;;;;5.67;3.80;;;7.90;77.80;;;;;;7342782;19;109116;-85
2022/03/08 10:03:01;;;;;;;9.73;4.70;;;7.90;76.90;;;;;;7343987;19;108590;-85
2022/03/08 10:05:39;;;;;;;12.07;4.55;;;7.90;74.90;;;;;;7341140;19;109420;-85
2022/03/08 10:08:19;;;;;;;7.63;4.50;;;8.00;75.40;;;;;;7348710;19;108690;-85
2022/03/08 10:10:55;;;;;;;4.60;4.10;;;8.10;75.30;;;;;;7344988;19;110264;-84
2022/03/08 10:13:25;;;;;;;6.45;4.15;;;8.20;76.90;;;;;;7341984;19;109003;-85
2022/03/08 10:16:23;;;;;;;5.80;3.97;;;8.40;76.70;;;;;;7343359;19;109634;-85
2022/03/08 10:18:56;;;;;;;5.82;4.32;;;8.50;73.80;;;;;;7345040;19;110570;-85
2022/03/08 10:21:29;;;;;;;4.90;3.70;;;8.50;74.40;;;;;;7343899;19;108492;-85
2022/03/08 10:23:58;;;;;;;5.90;3.67;;;8.60;73.60;;;;;;7342027;19;109889;-86
2022/03/08 10:26:26;;;;;;;6.13;4.05;;;8.60;73.40;;;;;;7345449;19;113035;-85
2022/03/08 10:28:55;;;;;;;6.25;4.20;;;8.80;73.80;;;;;;7338294;19;108981;-85
2022/03/08 10:31:22;;;;;;;6.97;4.47;;;8.80;71.90;;;;;;7350387;19;109595;-85
2022/03/08 10:33:50;;;;;;;6.10;4.03;;;8.90;72.30;;;;;;7345687;19;109084;-85
2022/03/08 10:36:23;;;;;;;4.85;4.32;;;9.00;71.10;;;;;;7343261;19;111256;-85
2022/03/08 10:39:14;;;;;;;5.88;4.60;;;9.00;71.80;;;;;;7344196;19;112347;-85
2022/03/08 10:41:53;;;;;;;6.75;4.00;;;9.10;72.40;;;;;;7343164;19;108647;-85
2022/03/08 10:44:37;;;;;;;4.35;3.58;;;9.30;72.00;;;;;;7341797;19;109783;-85
2022/03/08 10:47:06;;;;;;;7.10;4.10;;;9.30;69.30;;;;;;7344861;19;110131;-86
2022/03/08 10:49:35;;;;;;;5.55;3.85;;;9.40;71.00;;;;;;7342817;19;112014;-84
2022/03/08 10:52:05;;;;;;;5.85;3.50;;;9.50;70.30;;;;;;7347549;19;110978;-85
2022/03/08 10:54:33;;;;;;;7.28;3.95;;;9.50;69.80;;;;;;7345166;19;109316;-85
2022/03/08 10:57:00;;;;;;;6.88;3.80;;;9.60;70.10;;;;;;7342524;19;109595;-86
2022/03/08 10:59:28;;;;;;;5.05;3.88;;;9.70;69.00;;;;;;7343927;19;110129;-86
2022/03/08 11:01:55;;;;;;;6.97;3.55;;;9.80;69.10;;;;;;7340610;19;109936;-87
2022/03/08 11:04:24;;;;;;;5.25;3.38;;;9.80;69.10;;;;;;7342777;19;109391;-86
2022/03/08 11:06:52;;;;;;;4.28;3.40;;;9.90;68.00;;;;;;7344594;19;111099;-85
2022/03/08 11:09:23;;;;;;;4.70;3.33;;;9.90;69.00;;;;;;7339876;19;109686;-86
2022/03/08 11:11:50;;;;;;;8.15;3.90;;;10.00;68.10;;;;;;7342879;19;109483;-86
2022/03/08 11:14:17;;;;;;;5.70;3.55;;;10.10;68.20;;;;;;7349528;19;110165;-86
2022/03/08 11:16:50;;;;;;;6.25;3.55;;;10.10;68.20;;;;;;7341118;19;109932;-85
2022/03/08 11:19:18;;;;;;;6.95;3.75;;;10.20;67.90;;;;;;7343830;19;113240;-85
2022/03/08 11:21:46;;;;;;;7.57;3.83;;;10.30;67.10;;;;;;7341836;19;108373;-86
2022/03/08 11:24:14;;;;;;;4.80;4.05;;;10.30;68.00;;;;;;7342396;19;109544;-86
2022/03/08 11:26:42;;;;;;;8.43;3.97;;;10.30;67.70;;;;;;7343397;19;109576;-85
2022/03/08 11:29:09;;;;;;;7.43;3.95;;;10.40;68.00;;;;;;7340213;19;109669;-85
2022/03/08 11:31:39;;;;;;;5.10;3.70;;;10.60;67.10;;;;;;7341724;19;109614;-86
2022/03/08 11:34:14;;;;;;;4.97;3.70;;;10.70;67.00;;;;;;7340893;19;110740;-86
2022/03/08 11:37:20;;;;;;;6.72;3.95;;;10.70;66.30;;;;;;7345977;19;108517;-86
2022/03/08 11:40:11;;;;;;;4.10;3.53;;;10.90;67.20;;;;;;7338887;19;109879;-86
2022/03/08 11:42:44;;;;;;;7.22;3.72;;;11.10;66.80;;;;;;7334914;19;109178;-86
2022/03/08 11:45:17;;;;;;;5.38;3.70;;;11.20;66.30;;;;;;7336877;19;109740;-86
2022/03/08 11:47:46;;;;;;;5.53;3.60;;;11.30;66.40;;;;;;7338520;19;110186;-86
2022/03/08 11:50:29;;;;;;;7.03;3.92;;;11.40;65.80;;;;;;7336405;19;109910;-85
2022/03/08 11:53:18;;;;;;;6.10;3.55;;;11.50;64.00;;;;;;7337282;19;112908;-86
2022/03/08 11:55:45;;;;;;;4.78;3.47;;;11.50;64.40;;;;;;7338113;19;109370;-85
2022/03/08 11:58:20;;;;;;;5.57;4.40;;;11.60;64.80;;;;;;7337865;19;108347;-86
2022/03/08 12:00:51;;;;;;;5.78;3.65;;;11.80;64.60;;;;;;7343501;19;109852;-86
2022/03/08 12:03:24;;;;;;;4.78;3.28;;;11.90;63.90;;;;;;7338846;19;108467;-86
2022/03/08 12:06:09;;;;;;;3.78;3.38;;;12.10;63.80;;;;;;7337355;19;110094;-86
2022/03/08 12:08:36;;;;;;;4.50;3.30;;;12.20;61.70;;;;;;7337091;19;110877;-87
2022/03/08 12:11:12;;;;;;;;;;;12.40;61.70;;;;;;7340394;19;109340;-87
2022/03/08 12:13:43;;;;;;;5.28;3.40;;;12.60;62.20;;;;;;7341656;19;109097;-87
2022/03/08 12:16:09;;;;;;;3.95;2.90;;;12.60;61.10;;;;;;7341778;19;112666;-86
2022/03/08 12:18:37;;;;;;;6.57;3.35;;;12.80;60.90;;;;;;7340492;19;112055;-85
2022/03/08 12:21:19;;;;;;;;;;;12.90;60.10;;;;;;7341271;19;109136;-85
2022/03/08 12:23:58;;;;;;;5.45;3.05;;;13.10;59.20;;;;;;7349905;19;110349;-86
2022/03/08 12:26:36;;;;;;;4.05;3.10;;;13.10;59.70;;;;;;7340163;19;109520;-85
2022/03/08 12:29:25;;;;;;;6.93;3.28;;;13.20;60.00;;;;;;7340553;19;111920;-85
2022/03/08 12:31:58;;;;;;;4.55;3.38;;;13.40;58.90;;;;;;7338019;19;108748;-87
2022/03/08 12:34:42;;;;;;;5.68;3.42;;;13.50;59.20;;;;;;7338496;19;110976;-85
2022/03/08 12:37:29;;;;;;;4.82;3.80;;;13.70;59.10;;;;;;7337508;19;113032;-87
2022/03/08 12:40:09;;;;;;;5.20;3.47;;;13.80;58.20;;;;;;7340377;19;110804;-87
2022/03/08 12:42:38;;;;;;;;;;;13.90;58.60;;;;;;7338325;19;111676;-86
2022/03/08 12:45:21;;;;;;;4.03;3.63;;;14.00;59.30;;;;;;7341591;19;110223;-85
2022/03/08 12:47:53;;;;;;;5.22;3.38;;;14.00;57.70;;;;;;7346205;19;108876;-87
2022/03/08 12:50:31;;;;;;;3.83;3.38;;;14.00;57.00;;;;;;7337220;19;109806;-87